Huvudsida
METAR-TAF:

METAR-TAF

Flygplatser :

Port Bouet Airport

Abidjan, Elfenbenskusten

latitud: 05-15N, longitud: 003-56W, höjd: 7 m

Aktuellt väderrapport

Denna rapport gjordes för 22 minuter sedan, klockan 15:30 UTC
Vind 11 kt från syd/sydväst, varierande mellan syd och väst/sydväst
Temperatur 30°C
Fuktighet 70%
Tryck 1010 hPa
Sikt 10 km eller mer
Få moln på en höjd av 1200 ft

METAR: DIAP 221530Z 21011KT 180V240 9999 FEW012 30/24 Q1010 NOSIG

Tid: 15:52 (15:52 UTC)

Väderprognos

Denna rapport gjordes för 4 timmar och 52 minuter sedan, klockan 11:00 UTC
Prognos gäller från 22 kl. 12 UTC till 23 kl. 18 UTC
Vind 10 kt från sydväst
Sikt 10 km eller mer
Spridda moln på en höjd av 1200 ft
Temporärt
från 22 kl. 12 UTC till 22 kl. 16 UTC
Brutna moln på en höjd av 1200 ft
Temporärt
mellan 23 och 12 UTC
Sikt: 4000 m
Brutna moln på en höjd av 1200 ft
regn

TAF: DIAP 221100Z 2212/2318 22010KT 9999 SCT012 TEMPO 2212/2216 BKN012 TEMPO 23122318 4000 RA BKN012

Aktuella väderrapporter och prognoser från 4000 flygplatser (METAR- och TAF-rapporter).

De tillgängliga stationerna syns som gula och röda prickar på kartan.

För musen över prickarna för att se namnen på stationerna.

Klicka sedan för att få väderrapporter och prognoser.

För att ändra kartan: Klicka på de gröna knapparna med ett svart kors på för att zooma in; den gröna knappen med ett streck på för att zooma ut; eller på de gröna pilarna för angränsande kartor.


METAR-TAF: